createdAt,value
2022-09-03T00:00:19.304Z,14.60
2022-09-03T00:03:31.596Z,14.46
2022-09-03T00:06:40.652Z,14.40
2022-09-03T00:09:58.820Z,14.31
2022-09-03T00:13:03.980Z,14.28
2022-09-03T00:16:11.678Z,14.21
2022-09-03T00:19:20.255Z,14.09
2022-09-03T00:22:33.635Z,14.07
2022-09-03T00:25:59.052Z,14.01
2022-09-03T00:29:17.869Z,13.98
2022-09-03T00:32:27.920Z,13.96
2022-09-03T00:35:54.445Z,13.87
2022-09-03T00:38:59.140Z,13.88
2022-09-03T00:42:07.929Z,13.97
2022-09-03T00:45:10.630Z,14.06
2022-09-03T00:48:28.354Z,14.00
2022-09-03T00:51:59.243Z,13.86
2022-09-03T00:55:13.471Z,13.75
2022-09-03T00:58:16.364Z,13.74
2022-09-03T01:01:28.369Z,13.72
2022-09-03T01:04:45.850Z,13.72
2022-09-03T01:08:13.417Z,13.65
2022-09-03T01:11:26.225Z,13.65
2022-09-03T01:14:56.668Z,13.61
2022-09-03T01:18:11.387Z,13.54
2022-09-03T01:21:41.867Z,13.45
2022-09-03T01:25:09.239Z,13.46
2022-09-03T01:28:39.058Z,13.39
2022-09-03T01:31:46.799Z,13.41
2022-09-03T01:35:07.196Z,13.41
2022-09-03T01:38:12.633Z,13.42
2022-09-03T01:41:40.576Z,13.39
2022-09-03T01:44:52.887Z,13.38
2022-09-03T01:48:23.594Z,13.51
2022-09-03T01:51:30.449Z,13.51
2022-09-03T01:54:58.752Z,13.49
2022-09-03T01:58:20.983Z,13.36
2022-09-03T02:01:32.840Z,13.25
2022-09-03T02:04:36.598Z,13.16
2022-09-03T02:07:48.535Z,13.12
2022-09-03T02:10:56.562Z,13.13
2022-09-03T02:14:00.717Z,13.13
2022-09-03T02:17:05.947Z,13.11
2022-09-03T02:20:12.156Z,13.04
2022-09-03T02:23:15.586Z,12.92
2022-09-03T02:26:24.075Z,12.88
2022-09-03T02:29:26.735Z,12.86
2022-09-03T02:32:31.008Z,12.92
2022-09-03T02:35:34.529Z,12.90
2022-09-03T02:38:37.477Z,12.93
2022-09-03T02:41:40.171Z,12.91
2022-09-03T02:44:49.949Z,12.83
2022-09-03T02:47:58.892Z,12.85
2022-09-03T02:51:01.753Z,12.88
2022-09-03T02:54:20.912Z,12.87
2022-09-03T02:57:27.488Z,12.90
2022-09-03T03:00:30.291Z,12.89
2022-09-03T03:03:33.327Z,12.80
2022-09-03T03:06:35.845Z,12.75
2022-09-03T03:09:38.618Z,12.76
2022-09-03T03:12:41.126Z,12.77
2022-09-03T03:15:44.614Z,12.74
2022-09-03T03:18:47.255Z,12.73
2022-09-03T03:21:50.021Z,12.73
2022-09-03T03:24:52.913Z,12.75
2022-09-03T03:27:57.051Z,12.74
2022-09-03T03:31:08.529Z,12.67
2022-09-03T03:34:11.481Z,12.64
2022-09-03T03:37:14.130Z,12.54
2022-09-03T03:40:17.561Z,12.44
2022-09-03T03:43:20.055Z,12.41
2022-09-03T03:46:24.362Z,12.40
2022-09-03T03:49:26.844Z,12.41
2022-09-03T03:52:29.671Z,12.41
2022-09-03T03:55:35.116Z,12.36
2022-09-03T03:58:43.024Z,12.39
2022-09-03T04:01:45.667Z,12.39
2022-09-03T04:04:48.464Z,12.40
2022-09-03T04:07:50.915Z,12.42
2022-09-03T04:10:54.000Z,12.45
2022-09-03T04:13:56.551Z,12.47
2022-09-03T04:16:59.431Z,12.47
2022-09-03T04:20:02.152Z,12.53
2022-09-03T04:23:06.068Z,12.54
2022-09-03T04:26:10.826Z,12.54
2022-09-03T04:29:13.835Z,12.54
2022-09-03T04:32:34.979Z,12.56
2022-09-03T04:35:38.184Z,12.59
2022-09-03T04:38:43.046Z,12.65
2022-09-03T04:41:45.918Z,12.71
2022-09-03T04:44:48.447Z,12.67
2022-09-03T04:48:02.380Z,12.72
2022-09-03T04:51:14.818Z,12.79
2022-09-03T04:54:17.538Z,12.91
2022-09-03T04:57:20.082Z,12.99
2022-09-03T05:00:23.600Z,13.10
2022-09-03T05:03:26.080Z,13.17
2022-09-03T05:06:31.535Z,13.36
2022-09-03T05:09:34.961Z,13.53
2022-09-03T05:12:37.760Z,13.57
2022-09-03T05:15:43.383Z,13.61
2022-09-03T05:18:47.793Z,13.84
2022-09-03T05:21:50.285Z,13.87
2022-09-03T05:24:53.142Z,13.95
2022-09-03T05:27:55.652Z,14.19
2022-09-03T05:31:06.658Z,14.36
2022-09-03T05:34:10.743Z,14.40
2022-09-03T05:37:23.217Z,14.61
2022-09-03T05:40:25.744Z,14.62
2022-09-03T05:43:29.764Z,14.68
2022-09-03T05:46:33.714Z,14.90
2022-09-03T05:49:37.128Z,15.03
2022-09-03T05:52:40.034Z,15.13
2022-09-03T05:55:42.813Z,15.32
2022-09-03T05:58:50.716Z,15.46
2022-09-03T06:01:58.051Z,15.69
2022-09-03T06:05:02.975Z,15.82
2022-09-03T06:08:06.132Z,15.83
2022-09-03T06:11:11.044Z,15.97
2022-09-03T06:14:14.681Z,15.93
2022-09-03T06:17:17.428Z,16.08
2022-09-03T06:20:20.200Z,16.28
2022-09-03T06:23:23.721Z,16.54
2022-09-03T06:26:28.144Z,16.72
2022-09-03T06:29:31.127Z,16.92
2022-09-03T06:32:33.938Z,17.00
2022-09-03T06:35:43.079Z,17.16
2022-09-03T06:38:47.263Z,17.28
2022-09-03T06:41:51.845Z,17.43
2022-09-03T06:45:00.237Z,17.61
2022-09-03T06:48:03.324Z,17.71
2022-09-03T06:51:14.831Z,17.90
2022-09-03T06:54:17.633Z,17.95
2022-09-03T06:57:20.210Z,18.00
2022-09-03T07:00:23.691Z,18.07
2022-09-03T07:03:26.359Z,18.03
2022-09-03T07:06:32.242Z,18.35
2022-09-03T07:09:38.330Z,18.56
2022-09-03T07:12:41.047Z,18.78
2022-09-03T07:15:43.608Z,18.89
2022-09-03T07:18:46.937Z,18.94
2022-09-03T07:21:50.702Z,19.08
2022-09-03T07:24:53.629Z,19.32
2022-09-03T07:27:56.182Z,19.39
2022-09-03T07:31:08.822Z,19.50
2022-09-03T07:34:13.679Z,19.69
2022-09-03T07:37:18.718Z,19.85
2022-09-03T07:40:21.320Z,20.04
2022-09-03T07:43:24.421Z,20.08
2022-09-03T07:46:27.693Z,20.30
2022-09-03T07:49:30.521Z,20.22
2022-09-03T07:52:33.048Z,20.43
2022-09-03T07:55:36.559Z,20.50
2022-09-03T07:58:41.117Z,20.62
2022-09-03T08:01:44.034Z,20.64
2022-09-03T08:04:46.995Z,20.70
2022-09-03T08:07:49.631Z,20.77
2022-09-03T08:10:52.496Z,20.93
2022-09-03T08:14:01.680Z,21.15
2022-09-03T08:17:04.697Z,21.19
2022-09-03T08:20:08.190Z,21.28
2022-09-03T08:23:11.551Z,21.42
2022-09-03T08:26:15.704Z,21.64
2022-09-03T08:29:18.715Z,21.58
2022-09-03T08:32:21.416Z,21.42
2022-09-03T08:35:24.261Z,21.44
2022-09-03T08:38:26.840Z,21.61
2022-09-03T08:41:48.328Z,21.85
2022-09-03T08:45:02.678Z,22.13
2022-09-03T08:48:26.176Z,22.20
2022-09-03T08:51:28.896Z,22.27
2022-09-03T08:54:32.899Z,22.49
2022-09-03T08:57:46.787Z,22.55
2022-09-03T09:01:08.109Z,22.66
2022-09-03T09:04:22.995Z,22.61
2022-09-03T09:07:50.629Z,22.72
2022-09-03T09:11:06.385Z,22.63
2022-09-03T09:14:35.075Z,22.74
2022-09-03T09:17:47.481Z,22.61
2022-09-03T09:21:20.424Z,22.57
2022-09-03T09:24:27.217Z,22.68
2022-09-03T09:27:30.243Z,22.75
2022-09-03T09:30:33.180Z,23.01
2022-09-03T09:33:36.126Z,23.09
2022-09-03T09:36:51.220Z,23.29
2022-09-03T09:39:58.225Z,23.40
2022-09-03T09:43:05.854Z,23.38
2022-09-03T09:46:22.025Z,23.46
2022-09-03T09:49:43.601Z,23.64
2022-09-03T09:52:46.674Z,23.29
2022-09-03T09:55:58.243Z,23.32
2022-09-03T09:59:03.967Z,23.15
2022-09-03T10:02:13.801Z,23.50
2022-09-03T10:05:28.056Z,23.91
2022-09-03T10:08:30.996Z,24.21
2022-09-03T10:11:37.045Z,24.08
2022-09-03T10:14:50.072Z,24.18
2022-09-03T10:18:08.150Z,24.23
2022-09-03T10:21:22.524Z,24.43
2022-09-03T10:24:51.197Z,24.34
2022-09-03T10:27:54.645Z,24.16
2022-09-03T10:31:19.310Z,24.23
2022-09-03T10:34:35.083Z,24.52
2022-09-03T10:38:02.115Z,24.92
2022-09-03T10:41:31.323Z,24.87
2022-09-03T10:44:45.160Z,24.61
2022-09-03T10:48:09.656Z,24.67
2022-09-03T10:51:20.490Z,24.81
2022-09-03T10:54:31.189Z,25.07
2022-09-03T10:57:48.456Z,25.33
2022-09-03T11:01:06.502Z,25.17
2022-09-03T11:04:26.409Z,25.13
2022-09-03T11:07:39.249Z,25.44
2022-09-03T11:10:46.671Z,25.68
2022-09-03T11:13:54.891Z,25.54
2022-09-03T11:17:41.185Z,25.48
2022-09-03T11:20:44.596Z,25.55
2022-09-03T11:23:55.251Z,25.63
2022-09-03T11:27:10.561Z,25.58
2022-09-03T11:30:15.400Z,25.28
2022-09-03T11:33:24.260Z,25.42
2022-09-03T11:36:34.291Z,25.85
2022-09-03T11:39:39.845Z,25.96
2022-09-03T11:42:45.069Z,25.98
2022-09-03T11:45:48.439Z,25.76
2022-09-03T11:48:55.527Z,25.91
2022-09-03T11:52:03.596Z,25.95
2022-09-03T11:55:09.969Z,25.80
2022-09-03T11:58:34.740Z,25.49
2022-09-03T12:01:38.664Z,25.78
2022-09-03T12:04:55.816Z,25.86
2022-09-03T12:07:59.620Z,25.60
2022-09-03T12:11:17.680Z,25.28
2022-09-03T12:14:23.538Z,25.17
2022-09-03T12:18:19.653Z,25.33
2022-09-03T12:21:22.256Z,25.19
2022-09-03T12:24:37.918Z,25.35
2022-09-03T12:27:44.409Z,25.76
2022-09-03T12:30:53.317Z,25.84
2022-09-03T12:34:10.829Z,25.84
2022-09-03T12:44:25.995Z,26.18
2022-09-03T12:47:37.274Z,26.35
2022-09-03T12:50:42.541Z,26.47
2022-09-03T12:53:53.402Z,26.40
2022-09-03T12:56:59.707Z,26.21
2022-09-03T13:00:08.710Z,26.42
2022-09-03T13:03:30.864Z,26.57
2022-09-03T13:06:49.875Z,26.58
2022-09-03T13:10:04.215Z,25.99
2022-09-03T13:13:28.379Z,25.47
2022-09-03T13:16:37.180Z,25.40
2022-09-03T13:19:45.929Z,25.41
2022-09-03T13:22:58.002Z,25.73
2022-09-03T13:26:39.055Z,26.25
2022-09-03T13:30:19.312Z,25.73
2022-09-03T13:33:26.500Z,25.26
2022-09-03T13:36:59.099Z,25.51
2022-09-03T13:40:19.373Z,25.44
2022-09-03T13:43:42.544Z,25.47
2022-09-03T13:47:00.404Z,25.49
2022-09-03T13:50:22.433Z,25.85
2022-09-03T13:53:59.835Z,26.46
2022-09-03T13:57:08.124Z,27.06
2022-09-03T14:00:13.361Z,27.29
2022-09-03T14:03:48.174Z,27.32
2022-09-03T14:07:13.466Z,27.40
2022-09-03T14:10:28.562Z,26.99
2022-09-03T14:13:30.980Z,27.21
2022-09-03T14:17:02.368Z,27.48
2022-09-03T14:20:07.628Z,27.40
2022-09-03T14:23:36.377Z,26.95
2022-09-03T14:26:51.495Z,26.93
2022-09-03T14:30:01.080Z,26.97
2022-09-03T14:33:33.281Z,26.72
2022-09-03T14:36:41.178Z,26.40
2022-09-03T14:40:08.523Z,26.45
2022-09-03T14:43:46.743Z,26.33
2022-09-03T14:47:10.526Z,26.99
2022-09-03T14:50:50.381Z,27.17
2022-09-03T14:54:27.156Z,27.54
2022-09-03T14:57:29.955Z,27.86
2022-09-03T15:01:06.330Z,27.89
2022-09-03T15:04:31.304Z,28.87
2022-09-03T15:07:46.730Z,30.00
2022-09-03T15:10:56.788Z,30.37
2022-09-03T15:14:10.465Z,30.37
2022-09-03T15:17:43.935Z,30.85
2022-09-03T15:21:06.975Z,31.80
2022-09-03T15:24:43.972Z,32.43
2022-09-03T15:28:07.617Z,31.98
2022-09-03T15:31:38.140Z,32.19
2022-09-03T15:34:56.195Z,33.65
2022-09-03T15:38:28.720Z,34.27
2022-09-03T15:41:40.234Z,34.70
2022-09-03T15:44:48.104Z,31.87
2022-09-03T15:47:56.685Z,30.42
2022-09-03T15:51:12.947Z,29.93
2022-09-03T15:54:57.304Z,30.86
2022-09-03T15:58:14.359Z,32.26
2022-09-03T16:01:34.486Z,34.17
2022-09-03T16:04:55.726Z,36.10
2022-09-03T16:08:26.537Z,35.90
2022-09-03T16:12:15.592Z,35.69
2022-09-03T16:15:34.931Z,35.53
2022-09-03T16:18:46.722Z,34.36
2022-09-03T16:22:03.473Z,34.87
2022-09-03T16:25:16.870Z,35.54
2022-09-03T16:28:58.692Z,34.71
2022-09-03T16:32:21.244Z,33.94
2022-09-03T16:35:44.013Z,32.17
2022-09-03T16:38:49.777Z,30.23
2022-09-03T16:42:11.441Z,28.41
2022-09-03T16:45:43.376Z,26.92
2022-09-03T16:49:10.185Z,25.88
2022-09-03T16:52:38.468Z,25.00
2022-09-03T16:56:01.376Z,24.89
2022-09-03T16:59:19.430Z,23.94
2022-09-03T17:02:40.442Z,23.61
2022-09-03T17:06:09.021Z,23.27
2022-09-03T17:09:33.531Z,22.99
2022-09-03T17:13:03.414Z,22.73
2022-09-03T17:16:24.776Z,22.59
2022-09-03T17:19:46.535Z,22.42
2022-09-03T17:23:17.238Z,22.23
2022-09-03T17:26:30.097Z,22.01
2022-09-03T17:29:38.381Z,21.75
2022-09-03T17:33:45.041Z,21.67
2022-09-03T17:37:12.444Z,21.56
2022-09-03T17:40:28.927Z,21.33
2022-09-03T17:43:46.826Z,21.18
2022-09-03T17:47:15.821Z,21.05
2022-09-03T17:50:25.229Z,20.90
2022-09-03T17:53:40.791Z,21.14
2022-09-03T17:56:49.514Z,21.01
2022-09-03T17:59:56.114Z,20.88
2022-09-03T18:03:07.559Z,20.70
2022-09-03T18:06:30.031Z,20.55
2022-09-03T18:09:46.045Z,20.45
2022-09-03T18:13:11.745Z,20.35
2022-09-03T18:16:29.077Z,20.20
2022-09-03T18:20:04.745Z,20.08
2022-09-03T18:23:32.936Z,20.03
2022-09-03T18:27:03.012Z,19.90
2022-09-03T18:30:27.732Z,19.78
2022-09-03T18:33:49.362Z,19.69
2022-09-03T18:37:10.510Z,19.58
2022-09-03T18:40:46.575Z,19.52
2022-09-03T18:44:48.378Z,19.43
2022-09-03T18:48:29.871Z,19.37
2022-09-03T18:52:18.608Z,19.32
2022-09-03T18:55:53.173Z,19.22
2022-09-03T18:59:29.892Z,19.12
2022-09-03T19:03:11.224Z,19.07
2022-09-03T19:06:36.934Z,18.99
2022-09-03T19:10:15.520Z,18.93
2022-09-03T19:13:54.525Z,18.88
2022-09-03T19:17:23.763Z,18.79
2022-09-03T19:20:50.735Z,18.73
2022-09-03T19:24:18.720Z,18.67
2022-09-03T19:27:59.565Z,18.63
2022-09-03T19:31:46.073Z,18.62
2022-09-03T19:35:31.680Z,18.57
2022-09-03T19:39:30.483Z,18.53
2022-09-03T19:43:07.568Z,18.45
2022-09-03T19:46:57.226Z,18.41
2022-09-03T19:50:31.596Z,18.37
2022-09-03T19:53:54.461Z,18.33
2022-09-03T19:57:16.789Z,18.30
2022-09-03T20:00:38.142Z,18.29
2022-09-03T20:04:01.629Z,18.25
2022-09-03T20:07:27.975Z,18.25
2022-09-03T20:10:34.279Z,18.22
2022-09-03T20:13:58.364Z,18.18
2022-09-03T20:17:22.328Z,18.18
2022-09-03T20:20:48.615Z,18.15
2022-09-03T20:24:05.915Z,18.13
2022-09-03T20:27:20.617Z,18.18
2022-09-03T20:30:32.174Z,18.09
2022-09-03T20:33:58.548Z,18.03
2022-09-03T20:37:27.567Z,17.98
2022-09-03T20:40:47.109Z,17.96
2022-09-03T20:44:08.612Z,17.91
2022-09-03T20:47:39.212Z,17.87
2022-09-03T20:50:56.552Z,17.84
2022-09-03T20:54:09.510Z,17.82
2022-09-03T20:57:32.120Z,17.79
2022-09-03T21:01:13.702Z,17.69
2022-09-03T21:04:44.918Z,17.64
2022-09-03T21:08:21.311Z,17.60
2022-09-03T21:11:36.392Z,17.61
2022-09-03T21:14:47.711Z,17.52
2022-09-03T21:18:18.880Z,17.48
2022-09-03T21:21:48.740Z,17.53
2022-09-03T21:25:05.765Z,17.46
2022-09-03T21:28:20.472Z,17.44
2022-09-03T21:31:31.836Z,17.40
2022-09-03T21:34:50.520Z,17.41
2022-09-03T21:38:12.691Z,17.39
2022-09-03T21:41:34.244Z,17.35
2022-09-03T21:44:39.777Z,17.27
2022-09-03T21:47:48.126Z,17.21
2022-09-03T21:50:58.801Z,17.16
2022-09-03T21:54:06.600Z,17.19
2022-09-03T21:57:32.167Z,17.18
2022-09-03T22:00:34.676Z,17.11
2022-09-03T22:03:37.468Z,17.13
2022-09-03T22:07:05.060Z,17.13
2022-09-03T22:10:21.285Z,17.13
2022-09-03T22:13:36.483Z,17.13
2022-09-03T22:16:59.001Z,17.15
2022-09-03T22:20:06.615Z,17.09
2022-09-03T22:23:20.335Z,17.06
2022-09-03T22:26:38.229Z,17.04
2022-09-03T22:29:51.225Z,16.95
2022-09-03T22:33:07.506Z,16.85
2022-09-03T22:36:27.337Z,16.80
2022-09-03T22:39:32.797Z,16.73
2022-09-03T22:42:58.528Z,16.71
2022-09-03T22:46:12.790Z,16.62
2022-09-03T22:49:38.156Z,16.53
2022-09-03T22:53:17.395Z,16.49
2022-09-03T22:56:24.659Z,16.42
2022-09-03T22:59:39.113Z,16.32
2022-09-03T23:02:42.393Z,16.25
2022-09-03T23:06:07.937Z,16.23
2022-09-03T23:09:20.475Z,16.17
2022-09-03T23:12:41.839Z,16.14
2022-09-03T23:15:48.892Z,16.16
2022-09-03T23:18:53.223Z,16.11
2022-09-03T23:22:03.476Z,16.03
2022-09-03T23:25:17.514Z,15.97
2022-09-03T23:28:29.189Z,15.89
2022-09-03T23:31:31.830Z,15.90
2022-09-03T23:34:35.976Z,15.77
2022-09-03T23:37:42.081Z,15.69
2022-09-03T23:40:48.347Z,15.69
2022-09-03T23:44:06.843Z,15.68
2022-09-03T23:47:35.467Z,15.67
2022-09-03T23:50:48.735Z,15.67
2022-09-03T23:54:16.678Z,15.64
2022-09-03T23:57:27.384Z,15.58
